Time;durP1;ratioP1;P1;durP2;ratioP2;P2;SDS_P1;SDS_P2;PMS_P1;PMS_P2;Temp;Humidity;BMP_temperature;BMP_pressure;BME280_temperature;BME280_humidity;BME280_pressure;Samples;Min_cycle;Max_cycle;Signal;HPM_P1;HPM_P2
2023/08/29 00:00:31;;;;;;;;;;;15.10;99.90;;;;;;12282376;28;20399;-80
2023/08/29 00:06:33;;;;;;;;;;;15.00;99.90;;;;;;12279333;28;19961;-80
2023/08/29 00:12:35;;;;;;;;;;;14.70;99.90;;;;;;12273686;28;19938;-81
2023/08/29 00:18:37;;;;;;;;;;;14.50;99.90;;;;;;12282535;28;20013;-81
2023/08/29 00:24:38;;;;;;;;;;;14.50;99.90;;;;;;12286149;28;20291;-81
2023/08/29 00:30:43;;;;;;;;;;;14.40;99.90;;;;;;12280591;28;20327;-80
2023/08/29 00:36:46;;;;;;;;;;;14.20;99.90;;;;;;12273297;28;20013;-81
2023/08/29 00:42:48;;;;;;;;;;;14.30;99.90;;;;;;12299463;28;20885;-82
2023/08/29 00:48:50;;;;;;;;;;;14.10;99.90;;;;;;12276519;28;19931;-81
2023/08/29 00:54:52;;;;;;;;;;;13.70;99.90;;;;;;12278843;28;19934;-81
2023/08/29 01:00:54;;;;;;;;;;;13.80;99.90;;;;;;12279509;28;20008;-81
2023/08/29 02:19:15;;;;;;;;;;;14.00;99.90;;;;;;12251527;28;20474;-80
2023/08/29 02:25:17;;;;;;;;;;;14.00;99.90;;;;;;12275899;28;20392;-80
2023/08/29 02:31:20;;;;;;;;;;;14.10;99.90;;;;;;12256788;28;19941;-81
2023/08/29 02:37:22;;;;;;;;;;;14.00;99.90;;;;;;12274499;28;19982;-81
2023/08/29 02:43:24;;;;;;;;;;;13.90;99.90;;;;;;12270091;28;19958;-82
2023/08/29 02:49:26;;;;;;;;;;;14.00;99.90;;;;;;12274032;28;20473;-81
2023/08/29 02:55:28;;;;;;;;;;;13.90;99.90;;;;;;12284665;28;20458;-81
2023/08/29 03:01:30;;;;;;;;;;;14.10;99.90;;;;;;12283222;28;19938;-80
2023/08/29 03:07:31;;;;;;;;;;;14.10;99.90;;;;;;12301760;28;19942;-81
2023/08/29 03:13:33;;;;;;;;;;;14.00;99.90;;;;;;12277332;28;20163;-81
2023/08/29 03:19:35;;;;;;;;;;;14.00;99.90;;;;;;12300316;28;20399;-81
2023/08/29 03:25:37;;;;;;;;;;;14.00;99.90;;;;;;12281063;28;20375;-81
2023/08/29 03:31:39;;;;;;;;;;;14.00;99.90;;;;;;12280405;28;19931;-79
2023/08/29 03:37:41;;;;;;;;;;;14.00;99.90;;;;;;12287261;28;19935;-79
2023/08/29 03:43:43;;;;;;;;;;;14.00;99.90;;;;;;12279121;28;19931;-79
2023/08/29 03:49:47;;;;;;;;;;;13.80;99.90;;;;;;12303856;28;19989;-79
2023/08/29 03:55:50;;;;;;;;;;;13.90;99.90;;;;;;12279806;28;19945;-79
2023/08/29 04:01:52;;;;;;;;;;;14.00;99.90;;;;;;12299062;28;20394;-82
2023/08/29 04:07:55;;;;;;;;;;;14.00;99.90;;;;;;12278079;28;19941;-79
2023/08/29 04:13:58;;;;;;;;;;;13.80;99.90;;;;;;12284400;28;19961;-80
2023/08/29 04:20:00;;;;;;;;;;;13.90;99.90;;;;;;12280784;28;20510;-79
2023/08/29 04:26:03;;;;;;;;;;;13.90;99.90;;;;;;12279274;28;19942;-79
2023/08/29 04:32:05;;;;;;;;;;;13.90;99.90;;;;;;12287293;28;19981;-79
2023/08/29 04:38:07;;;;;;;;;;;13.80;99.90;;;;;;12284540;28;20363;-80
2023/08/29 04:44:09;;;;;;;;;;;13.70;99.90;;;;;;12303927;28;19923;-81
2023/08/29 04:50:13;;;;;;;;;;;13.80;99.90;;;;;;12355851;28;19915;-81
2023/08/29 04:56:17;;;;;;;;;;;13.90;99.90;;;;;;12336342;28;19962;-81
2023/08/29 05:02:19;;;;;;;;;;;13.90;99.90;;;;;;12332189;28;19930;-81
2023/08/29 05:08:22;;;;;;;;;;;13.90;99.90;;;;;;12326713;28;19922;-81
2023/08/29 05:14:23;;;;;;;;;;;13.90;99.90;;;;;;12295691;28;19968;-81
2023/08/29 05:20:25;;;;;;;;;;;13.80;99.90;;;;;;12286814;28;19973;-81
2023/08/29 05:26:28;;;;;;;;;;;13.80;99.90;;;;;;12304220;28;20047;-81
2023/08/29 05:32:31;;;;;;;;;;;13.90;99.90;;;;;;12288031;28;19973;-81
2023/08/29 05:38:33;;;;;;;;;;;13.90;99.90;;;;;;12289986;28;19934;-81
2023/08/29 05:44:34;;;;;;;;;;;14.00;99.90;;;;;;12292105;28;19958;-81
2023/08/29 05:50:42;;;;;;;;;;;14.00;99.90;;;;;;12294538;28;20319;-81
2023/08/29 05:56:44;;;;;;;;;;;14.10;99.90;;;;;;12307558;28;20132;-80
2023/08/29 06:02:51;;;;;;;;;;;14.10;99.90;;;;;;12296387;28;20410;-80
2023/08/29 06:08:53;;;;;;;;;;;14.20;99.90;;;;;;12288687;28;20065;-80
2023/08/29 06:14:58;;;;;;;;;;;14.10;99.90;;;;;;12291320;28;19930;-80
2023/08/29 06:21:00;;;;;;;;;;;14.20;99.90;;;;;;12280063;28;19973;-80
2023/08/29 06:27:02;;;;;;;;;;;14.30;99.90;;;;;;12284670;28;19985;-80
2023/08/29 06:33:06;;;;;;;;;;;14.30;99.90;;;;;;12272920;28;19938;-81
2023/08/29 06:39:08;;;;;;;;;;;14.30;99.90;;;;;;12277819;28;19927;-80
2023/08/29 06:45:10;;;;;;;;;;;14.40;99.90;;;;;;12275480;28;20791;-81
2023/08/29 06:51:12;;;;;;;;;;;14.40;99.90;;;;;;12280551;28;19935;-80
2023/08/29 06:57:14;;;;;;;;;;;14.50;99.90;;;;;;12292822;28;19972;-81
2023/08/29 07:03:17;;;;;;;;;;;14.60;99.90;;;;;;12271900;28;19953;-81
2023/08/29 07:09:19;;;;;;;;;;;14.70;99.90;;;;;;12277921;28;19930;-81
2023/08/29 07:15:21;;;;;;;;;;;14.70;99.90;;;;;;12267975;28;20013;-81
2023/08/29 07:21:23;;;;;;;;;;;14.70;99.90;;;;;;12269768;28;19934;-81
2023/08/29 07:27:25;;;;;;;;;;;14.70;99.90;;;;;;12292985;28;19961;-80
2023/08/29 07:33:27;;;;;;;;;;;14.70;99.90;;;;;;12272330;28;19927;-81
2023/08/29 07:39:29;;;;;;;;;;;14.70;99.90;;;;;;12282292;28;20715;-81
2023/08/29 07:45:31;;;;;;;;;;;14.60;99.90;;;;;;12287291;28;19930;-81
2023/08/29 07:51:33;;;;;;;;;;;14.80;99.90;;;;;;12276838;28;21654;-81
2023/08/29 07:57:35;;;;;;;;;;;14.90;99.90;;;;;;12286407;28;19934;-81
2023/08/29 08:03:38;;;;;;;;;;;15.00;99.90;;;;;;12289145;28;19938;-81
2023/08/29 08:09:42;;;;;;;;;;;15.10;99.90;;;;;;12284504;28;19942;-81
2023/08/29 08:15:44;;;;;;;;;;;15.20;99.90;;;;;;12280730;28;19996;-83
2023/08/29 08:21:46;;;;;;;;;;;14.70;99.90;;;;;;12296894;28;20017;-83
2023/08/29 08:27:51;;;;;;;;;;;14.80;99.90;;;;;;12295945;28;19993;-82
2023/08/29 08:33:56;;;;;;;;;;;15.00;99.90;;;;;;12294972;28;20347;-83
2023/08/29 08:39:57;;;;;;;;;;;15.10;99.90;;;;;;12278626;28;19977;-82
2023/08/29 08:45:59;;;;;;;;;;;15.40;99.90;;;;;;12296631;28;19930;-83
2023/08/29 08:52:03;;;;;;;;;;;15.40;99.90;;;;;;12276238;28;19997;-82
2023/08/29 08:58:07;;;;;;;;;;;15.30;99.90;;;;;;12282710;28;20299;-83
2023/08/29 09:04:09;;;;;;;;;;;15.40;99.90;;;;;;12279126;28;19931;-83
2023/08/29 09:10:11;;;;;;;;;;;15.60;99.90;;;;;;12277199;28;19937;-83
2023/08/29 09:16:14;;;;;;;;;;;15.70;99.90;;;;;;12269328;28;20027;-83
2023/08/29 09:22:18;;;;;;;;;;;15.80;99.90;;;;;;12275908;28;20508;-84
2023/08/29 09:28:27;;;;;;;;;;;15.30;99.90;;;;;;12289566;28;20346;-80
2023/08/29 09:34:30;;;;;;;;;;;15.60;99.90;;;;;;12272175;28;20034;-81
2023/08/29 09:40:44;;;;;;;;;;;15.90;99.90;;;;;;12265604;28;19982;-81
2023/08/29 09:46:50;;;;;;;;;;;16.10;99.90;;;;;;12271108;28;19937;-82
2023/08/29 09:52:52;;;;;;;;;;;16.10;99.90;;;;;;12276353;28;19930;-81
2023/08/29 09:58:59;;;;;;;;;;;16.50;99.90;;;;;;12274271;28;22880;-81
2023/08/29 10:05:07;;;;;;;;;;;16.80;99.90;;;;;;12288757;28;19931;-83
2023/08/29 10:11:09;;;;;;;;;;;16.70;99.90;;;;;;12275247;28;19931;-81
2023/08/29 10:17:12;;;;;;;;;;;17.00;99.90;;;;;;12274908;28;19930;-81
2023/08/29 10:23:32;;;;;;;;;;;16.70;99.90;;;;;;12275612;28;20634;-83
2023/08/29 10:29:40;;;;;;;;;;;16.70;99.90;;;;;;12274196;28;19934;-81
2023/08/29 10:35:48;;;;;;;;;;;17.00;99.90;;;;;;12295753;28;20025;-81
2023/08/29 10:41:52;;;;;;;;;;;17.10;99.90;;;;;;12280766;28;19934;-82
2023/08/29 10:47:54;;;;;;;;;;;17.10;99.90;;;;;;12289534;28;19931;-81
2023/08/29 10:54:05;;;;;;;;;;;17.30;99.90;;;;;;12291190;28;19974;-81
2023/08/29 11:00:18;;;;;;;;;;;17.30;99.90;;;;;;12285433;28;20707;-81
2023/08/29 11:06:24;;;;;;;;;;;17.30;99.90;;;;;;12283942;28;19931;-81
2023/08/29 11:12:27;;;;;;;;;;;17.80;99.90;;;;;;12296407;28;19930;-81
2023/08/29 11:18:32;;;;;;;;;;;18.20;99.90;;;;;;12281558;28;19933;-81
2023/08/29 11:24:34;;;;;;;;;;;18.40;99.90;;;;;;12275745;28;19935;-81
2023/08/29 11:30:38;;;;;;;;;;;18.50;99.90;;;;;;12276800;28;20021;-81
2023/08/29 11:36:50;;;;;;;;;;;18.50;99.90;;;;;;12284320;28;19930;-81
2023/08/29 11:42:53;;;;;;;;;;;17.80;99.90;;;;;;12288041;28;19937;-82
2023/08/29 11:49:16;;;;;;;;;;;17.80;99.90;;;;;;12284379;28;20459;-83
2023/08/29 11:55:18;;;;;;;;;;;17.70;99.90;;;;;;12283363;28;19961;-81
2023/08/29 12:01:21;;;;;;;;;;;17.80;99.90;;;;;;12276247;28;19976;-81
2023/08/29 12:07:30;;;;;;;;;;;18.00;99.90;;;;;;12280567;28;19986;-81
2023/08/29 12:13:33;;;;;;;;;;;18.20;99.90;;;;;;12274659;28;19926;-81
2023/08/29 12:19:35;;;;;;;;;;;18.30;99.90;;;;;;12280698;28;19934;-81
2023/08/29 12:25:40;;;;;;;;;;;18.70;99.90;;;;;;12272968;28;19930;-82
2023/08/29 12:31:42;;;;;;;;;;;18.50;99.90;;;;;;12271870;28;19934;-81
2023/08/29 12:37:44;;;;;;;;;;;18.40;99.90;;;;;;12294157;28;20041;-81
2023/08/29 12:43:46;;;;;;;;;;;18.70;99.90;;;;;;12278381;28;19941;-83
2023/08/29 12:49:48;;;;;;;;;;;19.10;99.90;;;;;;12276661;28;19941;-81
2023/08/29 12:55:50;;;;;;;;;;;19.00;99.90;;;;;;12274775;28;19931;-82
2023/08/29 13:01:53;;;;;;;;;;;18.90;99.90;;;;;;12278553;28;19937;-82
2023/08/29 13:07:55;;;;;;;;;;;19.10;99.90;;;;;;12276005;28;20308;-83
2023/08/29 13:13:59;;;;;;;;;;;19.40;99.90;;;;;;12273995;28;20387;-81
2023/08/29 13:20:01;;;;;;;;;;;19.50;99.90;;;;;;12273891;28;19930;-82
2023/08/29 13:26:05;;;;;;;;;;;19.90;99.90;;;;;;12270650;28;20024;-82
2023/08/29 13:32:09;;;;;;;;;;;20.00;99.90;;;;;;12272656;28;19931;-83
2023/08/29 13:38:10;;;;;;;;;;;20.30;99.90;;;;;;12265771;28;19937;-83
2023/08/29 13:44:13;;;;;;;;;;;20.60;99.90;;;;;;12273326;28;19930;-83
2023/08/29 13:50:17;;;;;;;;;;;20.20;99.90;;;;;;12274307;28;20416;-82
2023/08/29 13:56:19;;;;;;;;;;;20.30;99.90;;;;;;12288470;28;21042;-82
2023/08/29 14:02:21;;;;;;;;;;;20.00;99.90;;;;;;12269798;28;19962;-83
2023/08/29 14:08:28;;;;;;;;;;;19.10;99.90;;;;;;12274619;28;20494;-83
2023/08/29 14:14:30;;;;;;;;;;;19.20;99.90;;;;;;12270891;28;19931;-83
2023/08/29 14:20:32;;;;;;;;;;;19.20;99.90;;;;;;12274296;28;20911;-84
2023/08/29 14:26:34;;;;;;;;;;;18.80;99.90;;;;;;12271843;28;19927;-84
2023/08/29 14:32:36;;;;;;;;;;;18.90;99.90;;;;;;12288232;28;20013;-82
2023/08/29 14:38:38;;;;;;;;;;;19.30;99.90;;;;;;12288556;28;20386;-82
2023/08/29 14:44:45;;;;;;;;;;;19.40;99.90;;;;;;12258114;28;20032;-83
2023/08/29 14:50:51;;;;;;;;;;;19.80;99.90;;;;;;12273568;28;19934;-84
2023/08/29 14:56:55;;;;;;;;;;;19.90;99.90;;;;;;12294112;28;20391;-83
2023/08/29 15:02:57;;;;;;;;;;;20.00;99.90;;;;;;12280065;28;19930;-83
2023/08/29 15:08:59;;;;;;;;;;;20.00;99.90;;;;;;12275470;28;21555;-84
2023/08/29 15:15:04;;;;;;;;;;;20.10;99.90;;;;;;12271425;28;19927;-82
2023/08/29 15:21:06;;;;;;;;;;;20.00;99.90;;;;;;12280860;28;19941;-83
2023/08/29 15:27:11;;;;;;;;;;;20.00;99.90;;;;;;12280060;28;19930;-82
2023/08/29 15:33:13;;;;;;;;;;;19.60;99.90;;;;;;12277580;28;19973;-83
2023/08/29 15:39:18;;;;;;;;;;;19.90;99.90;;;;;;12269419;28;19970;-83
2023/08/29 15:45:20;;;;;;;;;;;19.60;99.90;;;;;;12283132;28;19937;-83
2023/08/29 15:51:26;;;;;;;;;;;19.70;99.90;;;;;;12287269;28;19942;-83
2023/08/29 15:57:29;;;;;;;;;;;19.30;99.90;;;;;;12274007;28;19935;-83
2023/08/29 16:03:31;;;;;;;;;;;19.60;99.90;;;;;;12282785;28;19930;-83
2023/08/29 16:09:37;;;;;;;;;;;19.20;99.90;;;;;;12293335;28;19930;-82
2023/08/29 16:15:40;;;;;;;;;;;19.00;99.90;;;;;;12274101;28;19980;-82
2023/08/29 16:21:42;;;;;;;;;;;18.70;99.90;;;;;;12292949;28;19984;-82
2023/08/29 16:27:44;;;;;;;;;;;18.60;99.90;;;;;;12277815;28;20595;-83
2023/08/29 16:33:46;;;;;;;;;;;18.20;99.90;;;;;;12277283;28;19934;-83
2023/08/29 16:39:48;;;;;;;;;;;18.10;99.90;;;;;;12276392;28;19972;-83
2023/08/29 16:45:50;;;;;;;;;;;18.00;99.90;;;;;;12269676;28;19930;-83
2023/08/29 16:51:55;;;;;;;;;;;18.10;99.90;;;;;;12294970;28;19927;-83
2023/08/29 16:58:02;;;;;;;;;;;18.60;99.90;;;;;;12292724;28;20307;-83
2023/08/29 17:04:06;;;;;;;;;;;19.00;99.90;;;;;;12276019;28;20013;-84
2023/08/29 17:10:10;;;;;;;;;;;19.10;99.90;;;;;;12277013;28;19930;-84
2023/08/29 17:16:12;;;;;;;;;;;19.30;99.90;;;;;;12281943;28;19985;-83
2023/08/29 17:22:17;;;;;;;;;;;19.50;99.90;;;;;;12283684;28;19935;-83
2023/08/29 17:28:19;;;;;;;;;;;19.60;99.90;;;;;;12280888;28;20409;-83
2023/08/29 17:34:22;;;;;;;;;;;19.70;99.90;;;;;;12287404;28;19953;-82
2023/08/29 17:40:25;;;;;;;;;;;19.30;99.90;;;;;;12285485;28;20387;-83
2023/08/29 17:46:26;;;;;;;;;;;19.20;99.90;;;;;;12275460;28;19941;-83
2023/08/29 17:52:30;;;;;;;;;;;19.10;99.90;;;;;;12278503;28;19934;-83
2023/08/29 17:58:35;;;;;;;;;;;18.80;99.90;;;;;;12286363;28;19926;-83
2023/08/29 18:04:37;;;;;;;;;;;18.30;99.90;;;;;;12288129;28;19934;-83
2023/08/29 18:10:39;;;;;;;;;;;18.10;99.90;;;;;;12288166;28;19930;-83
2023/08/29 18:16:41;;;;;;;;;;;17.80;99.90;;;;;;12288706;28;19958;-83
2023/08/29 18:22:43;;;;;;;;;;;17.70;99.90;;;;;;12292958;28;20430;-84
2023/08/29 18:28:45;;;;;;;;;;;17.50;99.90;;;;;;12324072;28;20253;-84
2023/08/29 18:34:50;;;;;;;;;;;17.30;99.90;;;;;;12324201;28;19935;-83
2023/08/29 18:40:55;;;;;;;;;;;17.20;99.90;;;;;;12325984;28;19937;-84
2023/08/29 18:46:57;;;;;;;;;;;17.10;99.90;;;;;;12325470;28;19990;-84
2023/08/29 18:52:59;;;;;;;;;;;17.00;99.90;;;;;;12287466;28;19930;-83
2023/08/29 18:59:01;;;;;;;;;;;16.90;99.90;;;;;;12278806;28;19931;-83
2023/08/29 19:05:03;;;;;;;;;;;16.90;99.90;;;;;;12276473;28;19934;-83
2023/08/29 19:11:06;;;;;;;;;;;16.70;99.90;;;;;;12278301;28;19969;-83
2023/08/29 19:17:11;;;;;;;;;;;16.80;99.90;;;;;;12272370;28;19965;-84
2023/08/29 19:23:16;;;;;;;;;;;16.70;99.90;;;;;;12274423;28;19977;-84
2023/08/29 19:29:21;;;;;;;;;;;16.60;99.90;;;;;;12279515;28;19927;-83
2023/08/29 19:35:30;;;;;;;;;;;16.50;99.90;;;;;;12281459;28;20354;-83
2023/08/29 19:41:33;;;;;;;;;;;16.30;99.90;;;;;;12282756;28;19938;-83
2023/08/29 19:47:36;;;;;;;;;;;16.20;99.90;;;;;;12279926;28;20033;-83
2023/08/29 19:53:39;;;;;;;;;;;16.30;99.90;;;;;;12281810;28;19935;-84
2023/08/29 19:59:40;;;;;;;;;;;16.40;99.90;;;;;;12278125;28;19935;-82
2023/08/29 20:05:43;;;;;;;;;;;16.40;99.90;;;;;;12276187;28;19930;-82
2023/08/29 20:11:45;;;;;;;;;;;16.30;99.90;;;;;;12273420;28;19930;-82
2023/08/29 20:17:47;;;;;;;;;;;16.20;99.90;;;;;;12276613;28;19934;-82
2023/08/29 20:23:49;;;;;;;;;;;16.00;99.90;;;;;;12278799;28;20021;-82
2023/08/29 20:30:04;;;;;;;;;;;16.00;99.90;;;;;;12290519;28;19935;-82
2023/08/29 20:36:06;;;;;;;;;;;16.10;99.90;;;;;;12275084;28;20375;-82
2023/08/29 20:42:09;;;;;;;;;;;16.10;99.90;;;;;;12274699;28;20850;-82
2023/08/29 20:48:12;;;;;;;;;;;16.20;99.90;;;;;;12276187;28;19978;-82
2023/08/29 20:54:14;;;;;;;;;;;16.00;99.90;;;;;;12274526;28;19934;-82
2023/08/29 21:00:19;;;;;;;;;;;15.80;99.90;;;;;;12269847;28;19930;-82
2023/08/29 21:06:22;;;;;;;;;;;15.70;99.90;;;;;;12275092;28;19992;-82
2023/08/29 21:12:24;;;;;;;;;;;15.60;99.90;;;;;;12274881;28;20869;-82
2023/08/29 21:18:26;;;;;;;;;;;15.40;99.90;;;;;;12273413;28;20050;-82
2023/08/29 21:24:28;;;;;;;;;;;15.10;99.90;;;;;;12274157;28;19934;-82
2023/08/29 21:30:30;;;;;;;;;;;15.20;99.90;;;;;;12272090;28;19930;-82
2023/08/29 21:36:36;;;;;;;;;;;15.20;99.90;;;;;;12270916;28;19930;-81
2023/08/29 21:42:39;;;;;;;;;;;15.30;99.90;;;;;;12271367;28;19935;-82
2023/08/29 21:48:41;;;;;;;;;;;15.30;99.90;;;;;;12289576;28;19985;-81
2023/08/29 21:54:43;;;;;;;;;;;15.30;99.90;;;;;;12273318;28;19957;-81
2023/08/29 22:00:52;;;;;;;;;;;15.40;99.90;;;;;;12271851;28;19977;-82
2023/08/29 22:06:56;;;;;;;;;;;15.50;99.90;;;;;;12263063;28;19993;-82
2023/08/29 22:12:59;;;;;;;;;;;15.00;99.90;;;;;;12273791;28;19941;-82
2023/08/29 22:19:01;;;;;;;;;;;15.10;99.90;;;;;;12286793;28;20025;-82
2023/08/29 22:25:04;;;;;;;;;;;15.40;99.90;;;;;;12288289;28;19930;-83
2023/08/29 22:31:06;;;;;;;;;;;15.20;99.90;;;;;;12289453;28;19973;-83
2023/08/29 22:37:08;;;;;;;;;;;15.10;99.90;;;;;;12275130;28;19970;-83
2023/08/29 22:43:11;;;;;;;;;;;15.00;99.90;;;;;;12272993;28;20049;-83
2023/08/29 22:49:13;;;;;;;;;;;14.90;99.90;;;;;;12273344;28;19931;-83
2023/08/29 22:55:15;;;;;;;;;;;15.00;99.90;;;;;;12276738;28;19984;-82
2023/08/29 23:01:19;;;;;;;;;;;15.10;99.90;;;;;;12276438;28;20021;-82
2023/08/29 23:07:23;;;;;;;;;;;15.00;99.90;;;;;;12281103;28;19935;-82
2023/08/29 23:13:27;;;;;;;;;;;15.00;99.90;;;;;;12292498;28;19930;-82
2023/08/29 23:19:32;;;;;;;;;;;14.90;99.90;;;;;;12286928;28;19931;-82
2023/08/29 23:25:36;;;;;;;;;;;14.90;99.90;;;;;;12324743;28;19922;-83
2023/08/29 23:31:41;;;;;;;;;;;14.70;99.90;;;;;;12332401;28;19930;-82
2023/08/29 23:37:43;;;;;;;;;;;14.60;99.90;;;;;;12318778;28;19938;-81
2023/08/29 23:43:45;;;;;;;;;;;14.60;99.90;;;;;;12286444;28;20026;-81
2023/08/29 23:49:47;;;;;;;;;;;14.70;99.90;;;;;;12281639;28;19930;-81
2023/08/29 23:55:49;;;;;;;;;;;14.80;99.90;;;;;;12279326;28;19934;-81
